LFRU/MXN METAR and TAF weather

Enter ICAO airport designator
Station Type Date Time Source
LFRU METAR 2020/10/29 17:30 UTC NOAA

LFRU 291730Z AUTO 23015KT 9999 FEW019 OVC038 15/12 Q1018


Station Type Date Time Source
LFRU Decoded METAR 2020/10/29 17:30 UTC NOAA

Morlaix / Ploujean, France (LFRU) 48-36N 003-49W
Oct 29, 2020 - 01:30 PM EDT / 2020.10.29 1730 UTC
Wind: from the SW (230 degrees) at 17 MPH (15 KT):0
Visibility: greater than 7 mile(s):0
Sky conditions: overcast
Temperature: 59 F (15 C)
Dew Point: 53 F (12 C)
Relative Humidity: 82%
Pressure (altimeter): 30.06 in. Hg (1018 hPa)
ob: LFRU 291730Z AUTO 23015KT 9999 FEW019 OVC038 15/12 Q1018
cycle: 17

Station Type Date Time Source
LFRU TAF UTC NOAA

Error!

Example: see airport list